Dallas, Texas
Traffic Map
Current Weather Conditions
Dallas, Texas
Scattered Clouds
Scattered Clouds
15°
Feels Like: 15°
Wind Chill: 15° Ceiling: Unl
Heat Index: 15° Visibility: 10mi
Dew Point: 10° Wind: 3mph
Humidity: 72% Direction: 60° (ENE)
Pressure: 30.05in Gusts: 0mph
Raw Report DataKDAL 270653Z 06003KT 10SM FEW140 SCT250 15/10 A3005 RMK AO2 SLP170 T01500100 $
Traffic Incident Summary
Active as of:
Severity:
Category:
InformationThere was an issue retrieving the traffic information for this location. Please try a different location or try again shortly.
Advertisements